sensor_id;sensor_type;location;lat;lon;timestamp;pressure;altitude;pressure_sealevel;temperature;humidity
53868;BME280;41577;47.470;19.080;2023-07-13T00:00:04;99946.84;;;24.82;90.77
53868;BME280;41577;47.470;19.080;2023-07-13T00:00:17;99945.81;;;24.78;90.31
53868;BME280;41577;47.470;19.080;2023-07-13T00:00:29;99956.16;;;24.81;90.21
53868;BME280;41577;47.470;19.080;2023-07-13T00:00:42;99947.72;;;24.78;90.41
53868;BME280;41577;47.470;19.080;2023-07-13T00:00:55;99936.28;;;24.76;90.03
53868;BME280;41577;47.470;19.080;2023-07-13T00:01:07;99946.97;;;24.72;89.64
53868;BME280;41577;47.470;19.080;2023-07-13T00:01:21;99952.72;;;24.71;90.02
53868;BME280;41577;47.470;19.080;2023-07-13T00:01:33;99941.81;;;24.71;89.11
53868;BME280;41577;47.470;19.080;2023-07-13T00:01:49;99933.91;;;24.69;89.54
53868;BME280;41577;47.470;19.080;2023-07-13T00:02:05;99944.00;;;24.69;89.54
53868;BME280;41577;47.470;19.080;2023-07-13T00:02:18;99945.06;;;24.73;89.88
53868;BME280;41577;47.470;19.080;2023-07-13T00:02:30;99943.72;;;24.70;89.85
53868;BME280;41577;47.470;19.080;2023-07-13T00:02:42;99949.69;;;24.72;90.25
53868;BME280;41577;47.470;19.080;2023-07-13T00:02:55;99931.50;;;24.62;90.16
53868;BME280;41577;47.470;19.080;2023-07-13T00:03:07;99933.63;;;24.71;90.08
53868;BME280;41577;47.470;19.080;2023-07-13T00:03:20;99933.69;;;24.66;90.25
53868;BME280;41577;47.470;19.080;2023-07-13T00:03:32;99946.47;;;24.70;90.34
53868;BME280;41577;47.470;19.080;2023-07-13T00:03:45;99941.28;;;24.69;90.39
53868;BME280;41577;47.470;19.080;2023-07-13T00:03:57;99929.84;;;24.67;90.66
53868;BME280;41577;47.470;19.080;2023-07-13T00:04:11;99930.63;;;24.67;90.71
53868;BME280;41577;47.470;19.080;2023-07-13T00:04:24;99925.84;;;24.59;91.49
53868;BME280;41577;47.470;19.080;2023-07-13T00:04:37;99934.03;;;24.59;92.06
53868;BME280;41577;47.470;19.080;2023-07-13T00:04:50;99936.97;;;24.62;92.21
53868;BME280;41577;47.470;19.080;2023-07-13T00:05:02;99927.97;;;24.62;91.93
53868;BME280;41577;47.470;19.080;2023-07-13T00:05:17;99926.66;;;24.59;92.67
53868;BME280;41577;47.470;19.080;2023-07-13T00:05:29;99934.59;;;24.56;93.27
53868;BME280;41577;47.470;19.080;2023-07-13T00:05:41;99934.06;;;24.54;93.46
53868;BME280;41577;47.470;19.080;2023-07-13T00:06:00;99940.88;;;24.56;93.90
53868;BME280;41577;47.470;19.080;2023-07-13T00:06:12;99931.34;;;24.54;94.13
53868;BME280;41577;47.470;19.080;2023-07-13T00:06:27;99930.78;;;24.57;93.82
53868;BME280;41577;47.470;19.080;2023-07-13T00:06:46;99918.88;;;24.48;93.96
53868;BME280;41577;47.470;19.080;2023-07-13T00:06:59;99927.50;;;24.55;94.34
53868;BME280;41577;47.470;19.080;2023-07-13T00:07:11;99926.47;;;24.51;94.40
53868;BME280;41577;47.470;19.080;2023-07-13T00:07:25;99928.91;;;24.52;94.78
53868;BME280;41577;47.470;19.080;2023-07-13T00:07:38;99926.22;;;24.47;95.13
53868;BME280;41577;47.470;19.080;2023-07-13T00:07:51;99920.75;;;24.47;95.54
53868;BME280;41577;47.470;19.080;2023-07-13T00:08:05;99925.94;;;24.49;95.88
53868;BME280;41577;47.470;19.080;2023-07-13T00:08:19;99927.06;;;24.42;96.24
53868;BME280;41577;47.470;19.080;2023-07-13T00:08:32;99914.53;;;24.41;96.69
53868;BME280;41577;47.470;19.080;2023-07-13T00:08:44;99919.97;;;24.41;97.49
53868;BME280;41577;47.470;19.080;2023-07-13T00:08:56;99915.13;;;24.38;98.53
53868;BME280;41577;47.470;19.080;2023-07-13T00:09:08;99914.06;;;24.34;99.26
53868;BME280;41577;47.470;19.080;2023-07-13T00:09:22;99923.31;;;24.38;99.86
53868;BME280;41577;47.470;19.080;2023-07-13T00:09:34;99919.25;;;24.36;100.00
53868;BME280;41577;47.470;19.080;2023-07-13T00:09:50;99929.56;;;24.39;100.00
53868;BME280;41577;47.470;19.080;2023-07-13T00:10:03;99924.38;;;24.37;100.00
53868;BME280;41577;47.470;19.080;2023-07-13T00:10:18;99920.84;;;24.37;100.00
53868;BME280;41577;47.470;19.080;2023-07-13T00:10:30;99923.66;;;24.32;100.00
53868;BME280;41577;47.470;19.080;2023-07-13T00:10:45;99922.81;;;24.31;100.00
53868;BME280;41577;47.470;19.080;2023-07-13T00:10:57;99928.00;;;24.33;100.00
53868;BME280;41577;47.470;19.080;2023-07-13T00:11:10;99916.84;;;24.29;100.00
53868;BME280;41577;47.470;19.080;2023-07-13T00:11:22;99922.81;;;24.31;100.00
53868;BME280;41577;47.470;19.080;2023-07-13T00:11:34;99909.47;;;24.30;100.00
53868;BME280;41577;47.470;19.080;2023-07-13T00:11:52;99914.94;;;24.30;99.29
53868;BME280;41577;47.470;19.080;2023-07-13T00:12:19;99931.00;;;24.31;100.00
53868;BME280;41577;47.470;19.080;2023-07-13T00:12:34;99912.81;;;24.21;100.00
53868;BME280;41577;47.470;19.080;2023-07-13T00:12:47;99928.59;;;24.30;100.00
53868;BME280;41577;47.470;19.080;2023-07-13T00:12:59;99921.53;;;24.24;100.00
53868;BME280;41577;47.470;19.080;2023-07-13T00:13:12;99924.78;;;24.26;100.00
53868;BME280;41577;47.470;19.080;2023-07-13T00:13:24;99927.53;;;24.26;100.00
53868;BME280;41577;47.470;19.080;2023-07-13T00:13:39;99910.09;;;24.21;100.00
53868;BME280;41577;47.470;19.080;2023-07-13T00:13:54;99914.47;;;24.23;100.00
53868;BME280;41577;47.470;19.080;2023-07-13T00:14:08;99900.28;;;24.20;100.00
53868;BME280;41577;47.470;19.080;2023-07-13T00:14:21;99919.63;;;24.24;100.00
53868;BME280;41577;47.470;19.080;2023-07-13T00:14:33;99936.25;;;24.28;100.00
53868;BME280;41577;47.470;19.080;2023-07-13T00:14:46;99932.69;;;24.27;100.00
53868;BME280;41577;47.470;19.080;2023-07-13T00:14:59;99922.59;;;24.28;100.00
53868;BME280;41577;47.470;19.080;2023-07-13T00:15:13;99900.50;;;24.24;100.00
53868;BME280;41577;47.470;19.080;2023-07-13T00:15:29;99904.28;;;24.28;97.05
53868;BME280;41577;47.470;19.080;2023-07-13T00:15:43;99917.88;;;24.33;95.24
53868;BME280;41577;47.470;19.080;2023-07-13T00:15:56;99911.34;;;24.34;95.62
53868;BME280;41577;47.470;19.080;2023-07-13T00:16:12;99907.50;;;24.35;95.67
53868;BME280;41577;47.470;19.080;2023-07-13T00:16:27;99904.75;;;24.35;95.26
53868;BME280;41577;47.470;19.080;2023-07-13T00:16:40;99900.63;;;24.38;94.96
53868;BME280;41577;47.470;19.080;2023-07-13T00:16:53;99902.56;;;24.37;94.45
53868;BME280;41577;47.470;19.080;2023-07-13T00:17:05;99900.34;;;24.39;94.90
53868;BME280;41577;47.470;19.080;2023-07-13T00:17:17;99897.09;;;24.37;94.93
53868;BME280;41577;47.470;19.080;2023-07-13T00:17:32;99895.69;;;24.40;95.11
53868;BME280;41577;47.470;19.080;2023-07-13T00:17:44;99896.56;;;24.35;95.12
53868;BME280;41577;47.470;19.080;2023-07-13T00:17:56;99892.75;;;24.36;94.98
53868;BME280;41577;47.470;19.080;2023-07-13T00:18:08;99892.16;;;24.39;95.10
53868;BME280;41577;47.470;19.080;2023-07-13T00:18:23;99889.16;;;24.41;95.46
53868;BME280;41577;47.470;19.080;2023-07-13T00:18:35;99898.44;;;24.40;95.56
53868;BME280;41577;47.470;19.080;2023-07-13T00:18:48;99883.44;;;24.37;95.73
53868;BME280;41577;47.470;19.080;2023-07-13T00:19:00;99898.69;;;24.43;95.75
53868;BME280;41577;47.470;19.080;2023-07-13T00:19:14;99891.06;;;24.40;96.02
53868;BME280;41577;47.470;19.080;2023-07-13T00:19:29;99892.69;;;24.41;96.39
53868;BME280;41577;47.470;19.080;2023-07-13T00:19:42;99883.16;;;24.39;97.18
53868;BME280;41577;47.470;19.080;2023-07-13T00:19:56;99892.41;;;24.43;98.65
53868;BME280;41577;47.470;19.080;2023-07-13T00:20:09;99891.06;;;24.40;98.85
53868;BME280;41577;47.470;19.080;2023-07-13T00:20:25;99883.44;;;24.37;99.28
53868;BME280;41577;47.470;19.080;2023-07-13T00:20:37;99885.66;;;24.35;99.75
53868;BME280;41577;47.470;19.080;2023-07-13T00:20:50;99892.97;;;24.40;100.00
53868;BME280;41577;47.470;19.080;2023-07-13T00:21:05;99891.88;;;24.41;100.00
53868;BME280;41577;47.470;19.080;2023-07-13T00:21:18;99891.34;;;24.39;100.00
53868;BME280;41577;47.470;19.080;2023-07-13T00:21:30;99888.38;;;24.35;100.00
53868;BME280;41577;47.470;19.080;2023-07-13T00:21:44;99888.38;;;24.35;100.00
53868;BME280;41577;47.470;19.080;2023-07-13T00:21:56;99893.03;;;24.35;100.00
53868;BME280;41577;47.470;19.080;2023-07-13T00:22:08;99897.97;;;24.33;100.00
53868;BME280;41577;47.470;19.080;2023-07-13T00:22:21;99883.78;;;24.31;100.00
53868;BME280;41577;47.470;19.080;2023-07-13T00:22:34;99886.59;;;24.26;100.00
53868;BME280;41577;47.470;19.080;2023-07-13T00:22:47;99880.88;;;24.22;100.00
53868;BME280;41577;47.470;19.080;2023-07-13T00:22:59;99890.19;;;24.21;100.00
53868;BME280;41577;47.470;19.080;2023-07-13T00:23:14;99892.91;;;24.21;100.00
53868;BME280;41577;47.470;19.080;2023-07-13T00:23:26;99884.25;;;24.14;100.00
53868;BME280;41577;47.470;19.080;2023-07-13T00:23:40;99888.03;;;24.18;100.00
53868;BME280;41577;47.470;19.080;2023-07-13T00:23:53;99874.22;;;24.09;100.00
53868;BME280;41577;47.470;19.080;2023-07-13T00:24:05;99880.41;;;24.15;100.00
53868;BME280;41577;47.470;19.080;2023-07-13T00:24:18;99880.19;;;24.11;100.00
53868;BME280;41577;47.470;19.080;2023-07-13T00:24:31;99877.75;;;24.10;100.00
53868;BME280;41577;47.470;19.080;2023-07-13T00:24:46;99880.75;;;24.08;100.00
53868;BME280;41577;47.470;19.080;2023-07-13T00:25:01;99866.38;;;24.03;100.00
53868;BME280;41577;47.470;19.080;2023-07-13T00:25:14;99874.03;;;24.00;100.00
53868;BME280;41577;47.470;19.080;2023-07-13T00:25:29;99874.84;;;24.01;100.00
53868;BME280;41577;47.470;19.080;2023-07-13T00:25:41;99859.38;;;23.91;100.00
53868;BME280;41577;47.470;19.080;2023-07-13T00:25:53;99874.63;;;23.97;100.00
53868;BME280;41577;47.470;19.080;2023-07-13T00:26:07;99863.69;;;23.97;100.00
53868;BME280;41577;47.470;19.080;2023-07-13T00:26:20;99869.16;;;23.97;100.00
53868;BME280;41577;47.470;19.080;2023-07-13T00:26:33;99864.25;;;23.94;100.00
53868;BME280;41577;47.470;19.080;2023-07-13T00:26:46;99870.31;;;23.91;100.00
53868;BME280;41577;47.470;19.080;2023-07-13T00:26:58;99857.53;;;23.87;100.00
53868;BME280;41577;47.470;19.080;2023-07-13T00:27:11;99869.50;;;23.91;100.00
53868;BME280;41577;47.470;19.080;2023-07-13T00:27:24;99855.38;;;23.84;100.00
53868;BME280;41577;47.470;19.080;2023-07-13T00:27:36;99857.81;;;23.85;100.00
53868;BME280;41577;47.470;19.080;2023-07-13T00:27:51;99869.81;;;23.84;100.00
53868;BME280;41577;47.470;19.080;2023-07-13T00:28:06;99858.72;;;23.75;100.00
53868;BME280;41577;47.470;19.080;2023-07-13T00:28:19;99861.13;;;23.82;100.00
53868;BME280;41577;47.470;19.080;2023-07-13T00:28:32;99864.66;;;23.83;100.00
53868;BME280;41577;47.470;19.080;2023-07-13T00:28:45;99860.34;;;23.76;100.00
53868;BME280;41577;47.470;19.080;2023-07-13T00:29:02;99862.78;;;23.78;100.00
53868;BME280;41577;47.470;19.080;2023-07-13T00:29:14;99857.09;;;23.74;100.00
53868;BME280;41577;47.470;19.080;2023-07-13T00:29:27;99857.34;;;23.78;100.00
53868;BME280;41577;47.470;19.080;2023-07-13T00:29:39;99865.78;;;23.76;100.00
53868;BME280;41577;47.470;19.080;2023-07-13T00:29:52;99862.81;;;23.73;100.00
53868;BME280;41577;47.470;19.080;2023-07-13T00:30:05;99855.72;;;23.72;100.00
53868;BME280;41577;47.470;19.080;2023-07-13T00:30:18;99863.38;;;23.75;100.00
53868;BME280;41577;47.470;19.080;2023-07-13T00:30:30;99868.03;;;23.74;100.00
53868;BME280;41577;47.470;19.080;2023-07-13T00:30:43;99858.97;;;23.74;100.00
53868;BME280;41577;47.470;19.080;2023-07-13T00:30:55;99844.84;;;23.67;100.00
53868;BME280;41577;47.470;19.080;2023-07-13T00:31:09;99864.72;;;23.72;100.00
53868;BME280;41577;47.470;19.080;2023-07-13T00:31:21;99839.47;;;23.62;100.00
53868;BME280;41577;47.470;19.080;2023-07-13T00:31:34;99854.16;;;23.66;100.00
53868;BME280;41577;47.470;19.080;2023-07-13T00:31:46;99853.03;;;23.67;100.00
53868;BME280;41577;47.470;19.080;2023-07-13T00:31:58;99844.63;;;23.63;100.00
53868;BME280;41577;47.470;19.080;2023-07-13T00:32:10;99852.81;;;23.63;100.00
53868;BME280;41577;47.470;19.080;2023-07-13T00:32:23;99848.97;;;23.64;100.00
53868;BME280;41577;47.470;19.080;2023-07-13T00:32:35;99848.41;;;23.67;100.00
53868;BME280;41577;47.470;19.080;2023-07-13T00:32:47;99850.03;;;23.68;100.00
53868;BME280;41577;47.470;19.080;2023-07-13T00:33:00;99857.63;;;23.71;100.00
53868;BME280;41577;47.470;19.080;2023-07-13T00:33:28;99841.91;;;23.63;100.00
53868;BME280;41577;47.470;19.080;2023-07-13T00:33:49;99849.22;;;23.68;100.00
53868;BME280;41577;47.470;19.080;2023-07-13T00:34:02;99849.22;;;23.68;100.00
53868;BME280;41577;47.470;19.080;2023-07-13T00:34:14;99851.13;;;23.67;100.00
53868;BME280;41577;47.470;19.080;2023-07-13T00:34:26;99850.84;;;23.69;100.00
53868;BME280;41577;47.470;19.080;2023-07-13T00:34:38;99848.16;;;23.64;100.00
53868;BME280;41577;47.470;19.080;2023-07-13T00:34:50;99836.69;;;23.67;100.00
53868;BME280;41577;47.470;19.080;2023-07-13T00:35:03;99829.66;;;23.61;100.00
53868;BME280;41577;47.470;19.080;2023-07-13T00:35:16;99840.22;;;23.67;100.00
53868;BME280;41577;47.470;19.080;2023-07-13T00:35:30;99845.16;;;23.65;100.00
53868;BME280;41577;47.470;19.080;2023-07-13T00:35:43;99837.78;;;23.66;100.00
53868;BME280;41577;47.470;19.080;2023-07-13T00:35:56;99841.91;;;23.63;100.00
53868;BME280;41577;47.470;19.080;2023-07-13T00:36:10;99837.00;;;23.60;100.00
53868;BME280;41577;47.470;19.080;2023-07-13T00:36:23;99847.38;;;23.63;100.00
53868;BME280;41577;47.470;19.080;2023-07-13T00:36:35;99833.72;;;23.63;100.00
53868;BME280;41577;47.470;19.080;2023-07-13T00:36:47;99839.19;;;23.63;100.00
53868;BME280;41577;47.470;19.080;2023-07-13T00:37:00;99848.16;;;23.64;100.00
53868;BME280;41577;47.470;19.080;2023-07-13T00:37:12;99836.47;;;23.63;100.00
53868;BME280;41577;47.470;19.080;2023-07-13T00:37:24;99843.25;;;23.66;100.00
53868;BME280;41577;47.470;19.080;2023-07-13T00:37:37;99837.84;;;23.61;100.00
53868;BME280;41577;47.470;19.080;2023-07-13T00:37:54;99844.09;;;23.61;100.00
53868;BME280;41577;47.470;19.080;2023-07-13T00:38:08;99834.59;;;23.58;100.00
53868;BME280;41577;47.470;19.080;2023-07-13T00:38:22;99841.66;;;23.59;100.00
53868;BME280;41577;47.470;19.080;2023-07-13T00:38:34;99846.03;;;23.61;100.00
53868;BME280;41577;47.470;19.080;2023-07-13T00:38:47;99841.94;;;23.58;100.00
53868;BME280;41577;47.470;19.080;2023-07-13T00:39:01;99840.84;;;23.59;100.00
53868;BME280;41577;47.470;19.080;2023-07-13T00:39:15;99834.34;;;23.55;100.00
53868;BME280;41577;47.470;19.080;2023-07-13T00:39:27;99844.66;;;23.58;100.00
53868;BME280;41577;47.470;19.080;2023-07-13T00:39:39;99830.28;;;23.52;100.00
53868;BME280;41577;47.470;19.080;2023-07-13T00:39:51;99835.72;;;23.52;100.00
53868;BME280;41577;47.470;19.080;2023-07-13T00:40:05;99833.59;;;23.49;100.00
53868;BME280;41577;47.470;19.080;2023-07-13T00:40:18;99827.03;;;23.50;100.00
53868;BME280;41577;47.470;19.080;2023-07-13T00:40:32;99834.63;;;23.53;100.00
53868;BME280;41577;47.470;19.080;2023-07-13T00:40:44;99833.53;;;23.54;100.00
53868;BME280;41577;47.470;19.080;2023-07-13T00:40:56;99838.19;;;23.54;100.00
53868;BME280;41577;47.470;19.080;2023-07-13T00:41:09;99834.63;;;23.53;100.00
53868;BME280;41577;47.470;19.080;2023-07-13T00:41:21;99833.00;;;23.52;100.00
53868;BME280;41577;47.470;19.080;2023-07-13T00:41:34;99834.63;;;23.53;100.00
53868;BME280;41577;47.470;19.080;2023-07-13T00:41:48;99846.84;;;23.56;100.00
53868;BME280;41577;47.470;19.080;2023-07-13T00:42:00;99836.53;;;23.53;100.00
53868;BME280;41577;47.470;19.080;2023-07-13T00:42:13;99830.56;;;23.51;100.00
53868;BME280;41577;47.470;19.080;2023-07-13T00:42:25;99831.09;;;23.53;100.00
53868;BME280;41577;47.470;19.080;2023-07-13T00:42:37;99832.19;;;23.52;100.00
53868;BME280;41577;47.470;19.080;2023-07-13T00:42:51;99834.09;;;23.51;100.00
53868;BME280;41577;47.470;19.080;2023-07-13T00:43:04;99834.38;;;23.50;100.00
53868;BME280;41577;47.470;19.080;2023-07-13T00:43:22;99824.28;;;23.50;100.00
53868;BME280;41577;47.470;19.080;2023-07-13T00:43:34;99829.75;;;23.50;100.00
53868;BME280;41577;47.470;19.080;2023-07-13T00:43:47;99827.28;;;23.49;100.00
53868;BME280;41577;47.470;19.080;2023-07-13T00:43:59;99828.41;;;23.48;100.00
53868;BME280;41577;47.470;19.080;2023-07-13T00:44:15;99823.22;;;23.46;100.00
53868;BME280;41577;47.470;19.080;2023-07-13T00:44:27;99824.28;;;23.50;100.00
53868;BME280;41577;47.470;19.080;2023-07-13T00:44:39;99824.56;;;23.49;100.00
53868;BME280;41577;47.470;19.080;2023-07-13T00:45:04;99822.16;;;23.47;100.00
53868;BME280;41577;47.470;19.080;2023-07-13T00:46:21;99827.28;;;23.49;100.00
53868;BME280;41577;47.470;19.080;2023-07-13T00:46:34;99821.84;;;23.49;100.00
53868;BME280;41577;47.470;19.080;2023-07-13T00:46:47;99819.94;;;23.49;100.00
53868;BME280;41577;47.470;19.080;2023-07-13T00:46:59;99821.63;;;23.45;100.00
53868;BME280;41577;47.470;19.080;2023-07-13T00:47:12;99825.41;;;23.49;100.00
53868;BME280;41577;47.470;19.080;2023-07-13T00:47:24;99816.69;;;23.47;100.00
53868;BME280;41577;47.470;19.080;2023-07-13T00:47:36;99821.84;;;23.49;100.00
53868;BME280;41577;47.470;19.080;2023-07-13T00:47:50;99822.38;;;23.51;100.00
53868;BME280;41577;47.470;19.080;2023-07-13T00:48:02;99828.63;;;23.51;100.00
53868;BME280;41577;47.470;19.080;2023-07-13T00:48:18;99826.22;;;23.50;100.00
53868;BME280;41577;47.470;19.080;2023-07-13T00:48:34;99829.75;;;23.50;100.00
53868;BME280;41577;47.470;19.080;2023-07-13T00:48:50;99826.22;;;23.50;100.00
53868;BME280;41577;47.470;19.080;2023-07-13T00:49:04;99812.34;;;23.46;100.00
53868;BME280;41577;47.470;19.080;2023-07-13T00:49:19;99824.28;;;23.50;100.00
53868;BME280;41577;47.470;19.080;2023-07-13T00:49:34;99829.16;;;23.53;100.00
53868;BME280;41577;47.470;19.080;2023-07-13T00:49:47;99831.09;;;23.53;100.00
53868;BME280;41577;47.470;19.080;2023-07-13T00:50:00;99815.84;;;23.52;100.00
53868;BME280;41577;47.470;19.080;2023-07-13T00:50:20;99817.78;;;23.46;100.00
53868;BME280;41577;47.470;19.080;2023-07-13T00:50:33;99833.22;;;23.56;100.00
53868;BME280;41577;47.470;19.080;2023-07-13T00:50:48;99824.28;;;23.50;100.00
53868;BME280;41577;47.470;19.080;2023-07-13T00:51:02;99817.50;;;23.48;100.00
53868;BME280;41577;47.470;19.080;2023-07-13T00:51:16;99829.16;;;23.53;100.00
53868;BME280;41577;47.470;19.080;2023-07-13T00:51:34;99826.22;;;23.50;100.00
53868;BME280;41577;47.470;19.080;2023-07-13T00:51:51;99821.03;;;23.48;100.00
53868;BME280;41577;47.470;19.080;2023-07-13T00:52:08;99833.53;;;23.54;100.00
53868;BME280;41577;47.470;19.080;2023-07-13T00:52:24;99824.28;;;23.50;100.00
53868;BME280;41577;47.470;19.080;2023-07-13T00:52:44;99828.09;;;23.54;100.00
53868;BME280;41577;47.470;19.080;2023-07-13T00:52:57;99831.88;;;23.53;100.00
53868;BME280;41577;47.470;19.080;2023-07-13T00:53:09;99814.44;;;23.54;100.00
53868;BME280;41577;47.470;19.080;2023-07-13T00:53:24;99825.03;;;23.56;100.00
53868;BME280;41577;47.470;19.080;2023-07-13T00:53:38;99819.91;;;23.54;100.00
53868;BME280;41577;47.470;19.080;2023-07-13T00:53:53;99817.97;;;23.55;100.00
53868;BME280;41577;47.470;19.080;2023-07-13T00:54:10;99809.56;;;23.51;100.00
53868;BME280;41577;47.470;19.080;2023-07-13T00:54:26;99819.59;;;23.56;100.00
53868;BME280;41577;47.470;19.080;2023-07-13T00:54:42;99821.25;;;23.57;100.00
53868;BME280;41577;47.470;19.080;2023-07-13T00:54:56;99819.31;;;23.57;100.00
53868;BME280;41577;47.470;19.080;2023-07-13T00:55:11;99816.38;;;23.54;100.00
53868;BME280;41577;47.470;19.080;2023-07-13T00:55:24;99813.66;;;23.54;100.00
53868;BME280;41577;47.470;19.080;2023-07-13T00:55:42;99819.59;;;23.56;100.00
53868;BME280;41577;47.470;19.080;2023-07-13T00:55:54;99809.00;;;23.54;100.00
53868;BME280;41577;47.470;19.080;2023-07-13T00:56:08;99813.66;;;23.54;100.00
53868;BME280;41577;47.470;19.080;2023-07-13T00:56:21;99822.03;;;23.57;100.00
53868;BME280;41577;47.470;19.080;2023-07-13T00:56:39;99811.41;;;23.56;100.00
53868;BME280;41577;47.470;19.080;2023-07-13T00:56:53;99817.13;;;23.59;100.00
53868;BME280;41577;47.470;19.080;2023-07-13T00:57:18;99819.03;;;23.59;100.00
53868;BME280;41577;47.470;19.080;2023-07-13T00:57:31;99814.16;;;23.56;100.00
53868;BME280;41577;47.470;19.080;2023-07-13T00:57:44;99815.19;;;23.60;100.00
53868;BME280;41577;47.470;19.080;2023-07-13T00:57:56;99817.13;;;23.59;100.00
53868;BME280;41577;47.470;19.080;2023-07-13T00:58:09;99813.59;;;23.59;100.00
53868;BME280;41577;47.470;19.080;2023-07-13T00:58:22;99813.88;;;23.57;100.00
53868;BME280;41577;47.470;19.080;2023-07-13T00:58:35;99820.66;;;23.60;100.00
53868;BME280;41577;47.470;19.080;2023-07-13T00:58:48;99825.84;;;23.62;100.00
53868;BME280;41577;47.470;19.080;2023-07-13T00:59:03;99814.16;;;23.56;100.00
53868;BME280;41577;47.470;19.080;2023-07-13T00:59:18;99810.34;;;23.57;100.00
53868;BME280;41577;47.470;19.080;2023-07-13T00:59:32;99812.78;;;23.58;100.00
53868;BME280;41577;47.470;19.080;2023-07-13T00:59:50;99814.41;;;23.59;100.00
53868;BME280;41577;47.470;19.080;2023-07-13T01:00:05;99807.34;;;23.53;100.00
53868;BME280;41577;47.470;19.080;2023-07-13T01:00:20;99815.19;;;23.60;100.00
53868;BME280;41577;47.470;19.080;2023-07-13T01:00:36;99811.72;;;23.54;100.00
53868;BME280;41577;47.470;19.080;2023-07-13T01:00:51;99809.53;;;23.56;100.00
53868;BME280;41577;47.470;19.080;2023-07-13T01:01:03;99813.59;;;23.59;100.00
53868;BME280;41577;47.470;19.080;2023-07-13T01:01:15;99811.66;;;23.59;100.00
53868;BME280;41577;47.470;19.080;2023-07-13T01:01:30;99818.75;;;23.61;100.00
53868;BME280;41577;47.470;19.080;2023-07-13T01:01:43;99810.88;;;23.59;100.00
53868;BME280;41577;47.470;19.080;2023-07-13T01:01:56;99816.31;;;23.59;100.00
53868;BME280;41577;47.470;19.080;2023-07-13T01:02:09;99810.06;;;23.58;100.00
53868;BME280;41577;47.470;19.080;2023-07-13T01:02:22;99815.50;;;23.58;100.00
53868;BME280;41577;47.470;19.080;2023-07-13T01:02:35;99816.31;;;23.59;100.00
53868;BME280;41577;47.470;19.080;2023-07-13T01:02:49;99815.19;;;23.60;100.00
53868;BME280;41577;47.470;19.080;2023-07-13T01:03:02;99810.88;;;23.59;100.00
53868;BME280;41577;47.470;19.080;2023-07-13T01:03:15;99809.22;;;23.58;100.00
53868;BME280;41577;47.470;19.080;2023-07-13T01:03:27;99807.34;;;23.58;100.00
53868;BME280;41577;47.470;19.080;2023-07-13T01:03:40;99808.13;;;23.59;100.00
53868;BME280;41577;47.470;19.080;2023-07-13T01:03:52;99804.59;;;23.58;100.00
53868;BME280;41577;47.470;19.080;2023-07-13T01:04:04;99808.94;;;23.59;100.00
53868;BME280;41577;47.470;19.080;2023-07-13T01:04:17;99806.22;;;23.59;100.00
53868;BME280;41577;47.470;19.080;2023-07-13T01:04:30;99806.22;;;23.59;100.00
53868;BME280;41577;47.470;19.080;2023-07-13T01:04:42;99806.22;;;23.59;100.00
53868;BME280;41577;47.470;19.080;2023-07-13T01:04:56;99804.31;;;23.60;100.00
53868;BME280;41577;47.470;19.080;2023-07-13T01:05:09;99805.41;;;23.59;100.00
53868;BME280;41577;47.470;19.080;2023-07-13T01:05:25;99798.91;;;23.55;100.00
53868;BME280;41577;47.470;19.080;2023-07-13T01:05:38;99801.88;;;23.58;100.00
53868;BME280;41577;47.470;19.080;2023-07-13T01:05:53;99799.97;;;23.59;100.00
53868;BME280;41577;47.470;19.080;2023-07-13T01:06:06;99793.16;;;23.56;100.00
53868;BME280;41577;47.470;19.080;2023-07-13T01:06:18;99796.44;;;23.58;100.00
53868;BME280;41577;47.470;19.080;2023-07-13T01:06:31;99797.75;;;23.61;100.00
53868;BME280;41577;47.470;19.080;2023-07-13T01:06:44;99798.84;;;23.60;100.00
53868;BME280;41577;47.470;19.080;2023-07-13T01:06:57;99782.81;;;23.53;100.00
53868;BME280;41577;47.470;19.080;2023-07-13T01:07:12;99790.13;;;23.58;100.00
53868;BME280;41577;47.470;19.080;2023-07-13T01:07:25;99787.41;;;23.58;100.00
53868;BME280;41577;47.470;19.080;2023-07-13T01:07:37;99793.16;;;23.56;100.00
53868;BME280;41577;47.470;19.080;2023-07-13T01:07:58;99783.66;;;23.54;100.00
53868;BME280;41577;47.470;19.080;2023-07-13T01:08:12;99796.13;;;23.60;100.00
53868;BME280;41577;47.470;19.080;2023-07-13T01:08:26;99798.84;;;23.60;100.00
53868;BME280;41577;47.470;19.080;2023-07-13T01:08:38;99802.09;;;23.62;100.00
53868;BME280;41577;47.470;19.080;2023-07-13T01:08:51;99795.03;;;23.61;100.00
53868;BME280;41577;47.470;19.080;2023-07-13T01:09:04;99794.22;;;23.61;100.00
53868;BME280;41577;47.470;19.080;2023-07-13T01:09:19;99793.69;;;23.58;100.00
53868;BME280;41577;47.470;19.080;2023-07-13T01:09:32;99793.41;;;23.60;100.00
53868;BME280;41577;47.470;19.080;2023-07-13T01:09:47;99781.75;;;23.54;100.00
53868;BME280;41577;47.470;19.080;2023-07-13T01:10:04;99792.59;;;23.59;100.00
53868;BME280;41577;47.470;19.080;2023-07-13T01:10:21;99799.69;;;23.61;100.00
53868;BME280;41577;47.470;19.080;2023-07-13T01:10:34;99800.19;;;23.63;100.00
53868;BME280;41577;47.470;19.080;2023-07-13T01:10:53;99788.81;;;23.55;100.00
53868;BME280;41577;47.470;19.080;2023-07-13T01:11:06;99794.22;;;23.61;100.00
53868;BME280;41577;47.470;19.080;2023-07-13T01:11:20;99787.41;;;23.58;100.00
53868;BME280;41577;47.470;19.080;2023-07-13T01:11:32;99784.75;;;23.53;100.00
53868;BME280;41577;47.470;19.080;2023-07-13T01:11:45;99790.97;;;23.58;100.00
53868;BME280;41577;47.470;19.080;2023-07-13T01:11:57;99786.38;;;23.54;100.00